createdAt,value
2018-07-13T00:01:01.862Z,17.51
2018-07-13T00:03:30.528Z,17.40
2018-07-13T00:05:59.157Z,17.25
2018-07-13T00:08:27.804Z,17.34
2018-07-13T00:10:56.372Z,17.14
2018-07-13T00:13:24.897Z,17.06
2018-07-13T00:16:04.422Z,16.75
2018-07-13T00:18:33.186Z,16.88
2018-07-13T00:21:01.921Z,16.94
2018-07-13T00:23:30.597Z,16.91
2018-07-13T00:25:59.227Z,16.94
2018-07-13T00:28:27.875Z,16.97
2018-07-13T00:30:56.401Z,17.00
2018-07-13T00:33:24.956Z,16.32
2018-07-13T00:35:53.532Z,16.34
2018-07-13T00:38:22.112Z,16.50
2018-07-13T00:40:50.740Z,16.15
2018-07-13T00:43:19.300Z,15.96
2018-07-13T00:45:47.900Z,15.87
2018-07-13T00:48:16.524Z,15.99
2018-07-13T00:50:45.041Z,16.30
2018-07-13T00:53:14.042Z,16.39
2018-07-13T00:55:42.552Z,16.50
2018-07-13T00:58:11.120Z,16.48
2018-07-13T01:00:39.752Z,16.46
2018-07-13T01:03:08.292Z,16.48
2018-07-13T01:05:36.961Z,15.86
2018-07-13T01:08:05.637Z,15.63
2018-07-13T01:10:34.219Z,15.43
2018-07-13T01:13:02.884Z,15.83
2018-07-13T01:15:31.484Z,15.90
2018-07-13T01:18:00.310Z,16.07
2018-07-13T01:20:28.864Z,16.00
2018-07-13T01:22:57.492Z,15.89
2018-07-13T01:25:26.090Z,15.35
2018-07-13T01:27:54.657Z,15.63
2018-07-13T01:30:23.488Z,15.27
2018-07-13T01:32:52.038Z,15.26
2018-07-13T01:35:20.633Z,15.46
2018-07-13T01:37:49.212Z,15.50
2018-07-13T01:40:17.828Z,15.55
2018-07-13T01:42:46.479Z,15.30
2018-07-13T01:45:15.262Z,15.62
2018-07-13T01:47:43.841Z,15.69
2018-07-13T01:50:12.477Z,15.89
2018-07-13T01:52:41.008Z,15.76
2018-07-13T01:55:09.840Z,16.14
2018-07-13T01:57:38.367Z,15.92
2018-07-13T02:00:07.893Z,16.01
2018-07-13T02:02:36.445Z,15.84
2018-07-13T02:05:05.610Z,15.96
2018-07-13T02:07:34.788Z,15.58
2018-07-13T02:10:03.412Z,15.76
2018-07-13T02:12:31.992Z,15.70
2018-07-13T02:15:00.556Z,15.38
2018-07-13T02:17:29.101Z,15.53
2018-07-13T02:19:57.893Z,15.59
2018-07-13T02:22:26.648Z,15.53
2018-07-13T02:24:55.276Z,15.56
2018-07-13T02:27:23.861Z,15.54
2018-07-13T02:29:52.408Z,15.60
2018-07-13T02:32:21.469Z,15.45
2018-07-13T02:34:50.021Z,15.34
2018-07-13T02:37:18.622Z,15.42
2018-07-13T02:39:47.185Z,15.37
2018-07-13T02:42:15.848Z,15.38
2018-07-13T02:44:44.428Z,15.37
2018-07-13T02:47:13.013Z,15.48
2018-07-13T02:49:41.567Z,15.28
2018-07-13T02:52:10.153Z,15.47
2018-07-13T02:54:38.697Z,15.41
2018-07-13T02:57:07.316Z,15.46
2018-07-13T02:59:35.885Z,15.51
2018-07-13T03:02:04.509Z,15.45
2018-07-13T03:04:33.141Z,15.15
2018-07-13T03:07:01.781Z,15.29
2018-07-13T03:09:30.437Z,15.28
2018-07-13T03:11:59.021Z,15.30
2018-07-13T03:14:27.664Z,15.37
2018-07-13T03:16:56.608Z,15.26
2018-07-13T03:19:25.179Z,15.21
2018-07-13T03:21:53.772Z,15.29
2018-07-13T03:24:22.368Z,15.26
2018-07-13T03:26:50.977Z,15.36
2018-07-13T03:29:19.640Z,15.26
2018-07-13T03:31:48.265Z,15.35
2018-07-13T03:34:17.096Z,15.37
2018-07-13T03:36:45.656Z,15.46
2018-07-13T03:39:14.241Z,15.22
2018-07-13T03:41:42.812Z,15.46
2018-07-13T03:44:11.393Z,15.44
2018-07-13T03:46:40.094Z,15.44
2018-07-13T03:49:08.748Z,15.45
2018-07-13T03:51:37.365Z,15.39
2018-07-13T03:54:06.461Z,15.38
2018-07-13T03:56:35.142Z,15.39
2018-07-13T03:59:04.001Z,15.25
2018-07-13T04:01:32.687Z,15.25
2018-07-13T04:04:01.429Z,15.33
2018-07-13T04:06:30.119Z,15.35
2018-07-13T04:08:58.729Z,15.27
2018-07-13T04:11:27.612Z,15.43
2018-07-13T04:13:56.172Z,15.43
2018-07-13T04:16:24.789Z,15.41
2018-07-13T04:18:53.365Z,15.40
2018-07-13T04:21:21.944Z,15.07
2018-07-13T04:23:50.680Z,15.26
2018-07-13T04:26:19.285Z,15.30
2018-07-13T04:28:48.367Z,15.39
2018-07-13T04:31:17.060Z,15.58
2018-07-13T04:33:45.656Z,15.64
2018-07-13T04:36:14.248Z,15.56
2018-07-13T04:38:42.861Z,15.70
2018-07-13T04:41:11.628Z,15.88
2018-07-13T04:43:40.140Z,15.79
2018-07-13T04:46:08.830Z,15.92
2018-07-13T04:48:37.611Z,16.02
2018-07-13T04:51:06.560Z,16.00
2018-07-13T04:53:35.252Z,15.89
2018-07-13T04:56:03.925Z,15.93
2018-07-13T04:58:32.684Z,16.00
2018-07-13T05:01:01.557Z,16.09
2018-07-13T05:03:30.172Z,16.09
2018-07-13T05:05:58.842Z,16.19
2018-07-13T05:08:27.553Z,16.17
2018-07-13T05:10:56.133Z,16.37
2018-07-13T05:13:24.792Z,16.66
2018-07-13T05:15:53.696Z,17.37
2018-07-13T05:18:22.316Z,17.68
2018-07-13T05:20:51.176Z,18.15
2018-07-13T05:23:19.989Z,18.34
2018-07-13T05:25:48.688Z,18.61
2018-07-13T05:28:17.392Z,18.77
2018-07-13T05:30:46.194Z,18.55
2018-07-13T05:33:14.809Z,18.88
2018-07-13T05:35:43.557Z,18.97
2018-07-13T05:38:12.466Z,19.16
2018-07-13T05:40:41.364Z,19.33
2018-07-13T05:43:10.092Z,19.35
2018-07-13T05:45:38.797Z,19.53
2018-07-13T05:48:07.466Z,19.66
2018-07-13T05:50:36.328Z,20.04
2018-07-13T05:53:05.165Z,19.69
2018-07-13T05:55:33.909Z,19.90
2018-07-13T05:58:02.606Z,20.51
2018-07-13T06:00:31.285Z,20.60
2018-07-13T06:02:59.998Z,20.35
2018-07-13T06:05:28.748Z,20.55
2018-07-13T06:07:57.465Z,20.88
2018-07-13T06:10:26.152Z,20.84
2018-07-13T06:12:54.849Z,20.70
2018-07-13T06:15:23.754Z,20.69
2018-07-13T06:17:52.414Z,20.85
2018-07-13T06:20:21.068Z,21.05
2018-07-13T06:22:49.728Z,21.20
2018-07-13T06:25:18.264Z,21.66
2018-07-13T06:27:47.040Z,21.49
2018-07-13T06:30:15.779Z,21.84
2018-07-13T06:32:44.528Z,21.81
2018-07-13T06:35:13.112Z,21.77
2018-07-13T06:37:41.828Z,21.81
2018-07-13T06:40:10.732Z,21.70
2018-07-13T06:42:39.449Z,21.69
2018-07-13T06:45:08.101Z,21.85
2018-07-13T06:47:36.790Z,22.13
2018-07-13T06:50:05.426Z,22.21
2018-07-13T06:52:34.253Z,22.15
2018-07-13T06:55:02.969Z,22.53
2018-07-13T06:57:42.890Z,22.53
2018-07-13T07:00:58.157Z,22.44
2018-07-13T07:03:27.609Z,22.74
2018-07-13T07:06:05.009Z,22.92
2018-07-13T07:08:33.632Z,22.85
2018-07-13T07:11:02.320Z,22.72
2018-07-13T07:13:40.008Z,22.95
2018-07-13T07:16:08.729Z,23.07
2018-07-13T07:18:37.333Z,22.92
2018-07-13T07:21:06.204Z,23.28
2018-07-13T07:23:35.279Z,23.31
2018-07-13T07:26:04.644Z,22.91
2018-07-13T07:28:33.340Z,23.63
2018-07-13T07:31:02.824Z,23.53
2018-07-13T07:33:31.448Z,23.69
2018-07-13T07:36:00.096Z,24.26
2018-07-13T07:38:29.385Z,23.67
2018-07-13T07:40:58.021Z,23.40
2018-07-13T07:43:26.660Z,23.78
2018-07-13T07:45:55.345Z,23.76
2018-07-13T07:48:23.909Z,23.59
2018-07-13T07:50:52.541Z,23.76
2018-07-13T07:53:21.122Z,23.92
2018-07-13T07:55:49.657Z,24.12
2018-07-13T07:58:18.328Z,24.35
2018-07-13T08:00:46.936Z,24.57
2018-07-13T08:03:15.838Z,25.03
2018-07-13T08:05:44.377Z,24.73
2018-07-13T08:08:12.917Z,25.04
2018-07-13T08:10:41.551Z,25.08
2018-07-13T08:13:10.176Z,25.51
2018-07-13T08:15:38.836Z,25.59
2018-07-13T08:18:07.552Z,25.61
2018-07-13T08:20:38.040Z,25.52
2018-07-13T08:23:07.412Z,25.27
2018-07-13T08:25:36.510Z,25.44
2018-07-13T08:28:05.707Z,25.17
2018-07-13T08:30:41.516Z,25.09
2018-07-13T08:33:10.265Z,25.86
2018-07-13T08:35:38.817Z,26.51
2018-07-13T08:38:07.880Z,26.44
2018-07-13T08:40:36.480Z,26.31
2018-07-13T08:43:05.168Z,26.02
2018-07-13T08:45:33.880Z,25.96
2018-07-13T08:48:02.493Z,25.44
2018-07-13T08:50:31.500Z,25.71
2018-07-13T08:53:00.461Z,25.65
2018-07-13T08:55:29.539Z,25.59
2018-07-13T08:57:58.465Z,26.19
2018-07-13T09:00:27.369Z,26.54
2018-07-13T09:02:55.944Z,26.56
2018-07-13T09:05:24.792Z,26.51
2018-07-13T09:07:53.420Z,26.71
2018-07-13T09:10:22.125Z,26.74
2018-07-13T09:12:50.874Z,26.73
2018-07-13T09:15:19.423Z,26.80
2018-07-13T09:17:48.044Z,27.54
2018-07-13T09:20:16.638Z,27.15
2018-07-13T09:22:45.299Z,27.01
2018-07-13T09:25:14.037Z,27.25
2018-07-13T09:27:42.672Z,27.57
2018-07-13T09:30:12.161Z,27.84
2018-07-13T09:32:41.148Z,27.12
2018-07-13T09:35:10.183Z,27.11
2018-07-13T09:37:38.921Z,27.39
2018-07-13T09:40:07.692Z,27.49
2018-07-13T09:42:36.800Z,27.91
2018-07-13T09:45:05.516Z,27.59
2018-07-13T09:47:34.897Z,27.73
2018-07-13T09:50:03.521Z,26.95
2018-07-13T09:52:32.207Z,26.62
2018-07-13T09:55:00.871Z,26.48
2018-07-13T09:57:29.464Z,26.77
2018-07-13T09:59:58.205Z,27.06
2018-07-13T10:02:26.860Z,27.02
2018-07-13T10:04:55.560Z,27.17
2018-07-13T10:07:24.188Z,27.83
2018-07-13T10:09:52.821Z,28.15
2018-07-13T10:12:21.502Z,27.95
2018-07-13T10:14:50.199Z,28.41
2018-07-13T10:17:18.752Z,28.30
2018-07-13T10:19:47.394Z,27.57
2018-07-13T10:22:18.320Z,27.82
2018-07-13T10:24:48.399Z,27.38
2018-07-13T10:27:17.032Z,27.50
2018-07-13T10:29:50.715Z,27.57
2018-07-13T10:32:19.382Z,27.88
2018-07-13T10:34:48.459Z,27.58
2018-07-13T10:37:17.240Z,26.68
2018-07-13T10:39:45.829Z,27.44
2018-07-13T10:42:14.772Z,27.82
2018-07-13T10:44:43.436Z,28.23
2018-07-13T10:47:12.099Z,27.20
2018-07-13T10:49:40.728Z,27.43
2018-07-13T10:52:09.308Z,27.42
2018-07-13T10:54:37.864Z,27.62
2018-07-13T10:57:06.561Z,28.08
2018-07-13T10:59:35.096Z,27.39
2018-07-13T11:02:03.756Z,27.78
2018-07-13T11:04:32.310Z,28.22
2018-07-13T11:07:01.156Z,27.89
2018-07-13T11:09:29.681Z,28.21
2018-07-13T11:11:58.320Z,28.61
2018-07-13T11:14:27.016Z,29.16
2018-07-13T11:16:55.588Z,29.12
2018-07-13T11:19:24.201Z,28.87
2018-07-13T11:21:52.808Z,28.74
2018-07-13T11:24:21.445Z,28.54
2018-07-13T11:26:49.964Z,28.94
2018-07-13T11:29:18.561Z,28.55
2018-07-13T11:31:47.127Z,28.77
2018-07-13T11:34:15.685Z,28.96
2018-07-13T11:36:44.245Z,29.63
2018-07-13T11:39:12.820Z,29.17
2018-07-13T11:41:41.346Z,29.05
2018-07-13T11:44:09.974Z,29.25
2018-07-13T11:46:38.544Z,28.80
2018-07-13T11:49:07.870Z,29.07
2018-07-13T11:51:36.433Z,29.04
2018-07-13T11:54:05.019Z,28.68
2018-07-13T11:56:33.561Z,28.76
2018-07-13T11:59:02.080Z,28.60
2018-07-13T12:01:30.628Z,29.06
2018-07-13T12:03:59.206Z,29.25
2018-07-13T12:06:27.804Z,29.16
2018-07-13T12:08:56.482Z,29.48
2018-07-13T12:11:25.025Z,29.42
2018-07-13T12:13:53.545Z,29.25
2018-07-13T12:16:22.128Z,29.55
2018-07-13T12:18:50.653Z,29.91
2018-07-13T12:21:19.236Z,29.57
2018-07-13T12:23:47.754Z,29.74
2018-07-13T12:26:16.376Z,30.31
2018-07-13T12:28:44.916Z,29.62
2018-07-13T12:31:13.494Z,29.61
2018-07-13T12:33:42.101Z,29.43
2018-07-13T12:36:10.648Z,28.96
2018-07-13T12:38:39.260Z,28.90
2018-07-13T12:41:07.884Z,28.87
2018-07-13T12:43:36.605Z,29.26
2018-07-13T12:46:05.555Z,29.92
2018-07-13T12:48:34.124Z,30.12
2018-07-13T12:51:02.761Z,29.96
2018-07-13T12:53:31.356Z,29.77
2018-07-13T12:56:00.030Z,29.92
2018-07-13T12:58:28.697Z,29.63
2018-07-13T13:00:57.249Z,29.52
2018-07-13T13:03:25.833Z,30.37
2018-07-13T13:05:54.480Z,30.51
2018-07-13T13:08:23.016Z,30.74
2018-07-13T13:10:51.681Z,30.88
2018-07-13T13:13:20.232Z,30.77
2018-07-13T13:15:48.825Z,30.20
2018-07-13T13:18:17.389Z,30.68
2018-07-13T13:20:46.038Z,30.57
2018-07-13T13:23:14.568Z,30.70
2018-07-13T13:25:43.252Z,30.65
2018-07-13T13:28:11.800Z,30.71
2018-07-13T13:30:40.348Z,30.96
2018-07-13T13:33:09.237Z,30.58
2018-07-13T13:35:38.143Z,30.54
2018-07-13T13:38:06.740Z,30.82
2018-07-13T13:40:35.320Z,30.88
2018-07-13T13:43:03.896Z,30.71
2018-07-13T13:45:32.533Z,30.80
2018-07-13T13:48:01.558Z,31.04
2018-07-13T13:50:30.092Z,30.50
2018-07-13T13:52:58.612Z,30.56
2018-07-13T13:55:27.268Z,30.37
2018-07-13T13:57:55.889Z,30.83
2018-07-13T14:00:24.519Z,30.55
2018-07-13T14:02:53.076Z,30.61
2018-07-13T14:05:21.712Z,29.91
2018-07-13T14:07:50.304Z,29.90
2018-07-13T14:10:18.885Z,29.99
2018-07-13T14:12:47.661Z,29.94
2018-07-13T14:15:16.269Z,29.44
2018-07-13T14:17:44.884Z,29.56
2018-07-13T14:20:13.417Z,29.25
2018-07-13T14:22:42.072Z,29.54
2018-07-13T14:25:10.664Z,29.91
2018-07-13T14:27:39.581Z,29.87
2018-07-13T14:30:08.190Z,29.61
2018-07-13T14:32:36.748Z,29.67
2018-07-13T14:35:05.853Z,29.68
2018-07-13T14:37:34.424Z,29.64
2018-07-13T14:40:03.034Z,30.07
2018-07-13T14:42:31.544Z,29.85
2018-07-13T14:45:00.165Z,30.46
2018-07-13T14:47:28.840Z,30.53
2018-07-13T14:49:57.690Z,29.99
2018-07-13T14:52:26.343Z,30.06
2018-07-13T14:54:55.001Z,30.57
2018-07-13T14:57:23.669Z,30.69
2018-07-13T14:59:52.292Z,30.60
2018-07-13T15:02:21.091Z,29.73
2018-07-13T15:04:49.704Z,29.45
2018-07-13T15:07:18.337Z,29.13
2018-07-13T15:09:46.945Z,29.58
2018-07-13T15:12:15.544Z,29.32
2018-07-13T15:14:44.276Z,28.93
2018-07-13T15:17:12.829Z,29.03
2018-07-13T15:19:41.487Z,28.71
2018-07-13T15:22:10.060Z,28.61
2018-07-13T15:24:38.685Z,28.44
2018-07-13T15:27:07.337Z,28.33
2018-07-13T15:29:35.880Z,28.22
2018-07-13T15:32:04.437Z,28.31
2018-07-13T15:34:33.121Z,28.38
2018-07-13T15:37:01.903Z,28.29
2018-07-13T15:39:30.456Z,28.25
2018-07-13T15:41:59.029Z,28.12
2018-07-13T15:44:27.644Z,28.21
2018-07-13T15:46:56.336Z,28.48
2018-07-13T15:49:24.896Z,28.28
2018-07-13T15:51:53.550Z,28.33
2018-07-13T15:54:22.068Z,28.17
2018-07-13T15:56:50.824Z,28.15
2018-07-13T15:59:19.459Z,28.07
2018-07-13T16:01:48.083Z,28.05
2018-07-13T16:04:16.913Z,27.88
2018-07-13T16:06:45.540Z,28.19
2018-07-13T16:09:14.049Z,28.06
2018-07-13T16:11:42.616Z,27.90
2018-07-13T16:14:11.252Z,27.89
2018-07-13T16:16:39.752Z,28.00
2018-07-13T16:19:08.400Z,27.77
2018-07-13T16:21:36.940Z,27.91
2018-07-13T16:24:05.513Z,28.02
2018-07-13T16:26:34.136Z,28.10
2018-07-13T16:29:02.888Z,27.95
2018-07-13T16:31:31.656Z,27.91
2018-07-13T16:34:00.642Z,28.03
2018-07-13T16:36:29.136Z,27.88
2018-07-13T16:38:57.700Z,27.92
2018-07-13T16:41:26.348Z,27.92
2018-07-13T16:43:54.919Z,28.10
2018-07-13T16:46:23.596Z,27.88
2018-07-13T16:48:52.181Z,27.82
2018-07-13T16:51:20.729Z,27.77
2018-07-13T16:53:49.292Z,27.81
2018-07-13T16:56:17.998Z,27.80
2018-07-13T16:58:46.500Z,27.84
2018-07-13T17:01:15.101Z,27.60
2018-07-13T17:03:43.771Z,27.48
2018-07-13T17:06:12.484Z,27.47
2018-07-13T17:08:41.476Z,27.64
2018-07-13T17:11:10.120Z,27.68
2018-07-13T17:13:38.700Z,27.78
2018-07-13T17:16:07.236Z,27.82
2018-07-13T17:18:35.764Z,27.68
2018-07-13T17:21:04.413Z,27.56
2018-07-13T17:23:33.136Z,27.44
2018-07-13T17:26:02.104Z,27.61
2018-07-13T17:28:30.680Z,27.40
2018-07-13T17:30:59.324Z,27.40
2018-07-13T17:33:27.884Z,27.28
2018-07-13T17:35:56.528Z,27.35
2018-07-13T17:38:25.452Z,27.08
2018-07-13T17:40:54.292Z,27.17
2018-07-13T17:43:22.856Z,27.05
2018-07-13T17:45:51.472Z,27.30
2018-07-13T17:48:20.100Z,27.47
2018-07-13T17:50:48.711Z,27.50
2018-07-13T17:53:17.332Z,27.42
2018-07-13T17:55:45.927Z,27.09
2018-07-13T17:58:14.702Z,27.14
2018-07-13T18:00:43.334Z,27.04
2018-07-13T18:03:11.973Z,27.06
2018-07-13T18:05:40.508Z,26.86
2018-07-13T18:08:09.047Z,26.92
2018-07-13T18:10:37.649Z,26.92
2018-07-13T18:13:07.217Z,26.76
2018-07-13T18:15:35.876Z,26.73
2018-07-13T18:18:04.445Z,26.36
2018-07-13T18:20:33.100Z,26.53
2018-07-13T18:23:01.750Z,26.46
2018-07-13T18:25:30.324Z,26.41
2018-07-13T18:27:58.957Z,26.41
2018-07-13T18:30:27.496Z,26.35
2018-07-13T18:32:56.076Z,26.24
2018-07-13T18:35:24.653Z,26.25
2018-07-13T18:37:53.261Z,26.28
2018-07-13T18:40:21.804Z,26.38
2018-07-13T18:42:50.440Z,26.19
2018-07-13T18:45:19.085Z,26.31
2018-07-13T18:47:47.609Z,26.68
2018-07-13T18:50:16.165Z,26.45
2018-07-13T18:52:44.701Z,26.20
2018-07-13T18:55:13.257Z,26.15
2018-07-13T18:57:41.788Z,25.96
2018-07-13T19:00:10.544Z,26.01
2018-07-13T19:02:39.128Z,26.03
2018-07-13T19:05:07.684Z,25.85
2018-07-13T19:07:36.241Z,25.69
2018-07-13T19:10:04.925Z,25.60
2018-07-13T19:12:33.548Z,25.35
2018-07-13T19:15:02.158Z,25.33
2018-07-13T19:17:30.771Z,24.98
2018-07-13T19:19:59.380Z,24.62
2018-07-13T19:22:28.062Z,24.47
2018-07-13T19:24:56.572Z,24.23
2018-07-13T19:27:25.188Z,24.34
2018-07-13T19:29:53.844Z,24.01
2018-07-13T19:32:22.635Z,23.93
2018-07-13T19:34:51.265Z,23.84
2018-07-13T19:37:19.855Z,23.53
2018-07-13T19:39:48.475Z,23.45
2018-07-13T19:42:17.173Z,23.13
2018-07-13T19:44:45.756Z,23.06
2018-07-13T19:47:14.376Z,23.24
2018-07-13T19:49:43.031Z,22.91
2018-07-13T19:52:11.880Z,23.23
2018-07-13T19:54:40.485Z,23.38
2018-07-13T19:57:09.198Z,23.42
2018-07-13T19:59:37.764Z,23.37
2018-07-13T20:02:06.609Z,23.37
2018-07-13T20:04:35.688Z,23.33
2018-07-13T20:07:04.305Z,23.26
2018-07-13T20:09:32.849Z,23.32
2018-07-13T20:12:01.419Z,23.21
2018-07-13T20:14:30.040Z,23.22
2018-07-13T20:16:58.717Z,23.31
2018-07-13T20:19:27.319Z,23.33
2018-07-13T20:21:55.913Z,23.21
2018-07-13T20:24:24.864Z,22.60
2018-07-13T20:26:53.524Z,22.47
2018-07-13T20:29:22.256Z,22.34
2018-07-13T20:31:50.833Z,22.30
2018-07-13T20:34:19.535Z,22.18
2018-07-13T20:36:48.156Z,21.93
2018-07-13T20:39:16.857Z,21.97
2018-07-13T20:41:45.533Z,21.97
2018-07-13T20:44:14.198Z,21.92
2018-07-13T20:46:42.938Z,22.03
2018-07-13T20:49:11.625Z,21.89
2018-07-13T20:51:40.208Z,21.98
2018-07-13T20:54:08.941Z,22.03
2018-07-13T20:56:37.561Z,22.05
2018-07-13T20:59:06.213Z,21.99
2018-07-13T21:01:34.784Z,22.28
2018-07-13T21:04:03.417Z,21.96
2018-07-13T21:06:31.976Z,21.95
2018-07-13T21:09:00.576Z,22.09
2018-07-13T21:11:29.096Z,22.08
2018-07-13T21:13:57.710Z,21.96
2018-07-13T21:16:26.380Z,22.13
2018-07-13T21:18:55.108Z,22.20
2018-07-13T21:21:23.689Z,21.74
2018-07-13T21:23:52.684Z,21.48
2018-07-13T21:26:21.276Z,21.55
2018-07-13T21:28:49.858Z,21.66
2018-07-13T21:31:18.709Z,22.02
2018-07-13T21:33:47.249Z,21.82
2018-07-13T21:36:15.995Z,21.82
2018-07-13T21:38:44.564Z,21.86
2018-07-13T21:41:13.104Z,21.38
2018-07-13T21:43:41.908Z,21.57
2018-07-13T21:46:10.552Z,21.62
2018-07-13T21:48:39.076Z,21.61
2018-07-13T21:51:07.678Z,21.58
2018-07-13T21:53:36.224Z,21.57
2018-07-13T21:56:04.875Z,21.32
2018-07-13T21:58:33.553Z,20.97
2018-07-13T22:01:02.112Z,20.69
2018-07-13T22:03:30.670Z,20.82
2018-07-13T22:05:59.196Z,20.70
2018-07-13T22:08:28.020Z,20.75
2018-07-13T22:10:56.601Z,20.53
2018-07-13T22:13:25.189Z,20.51
2018-07-13T22:15:53.756Z,20.19
2018-07-13T22:18:22.496Z,19.94
2018-07-13T22:20:51.164Z,19.94
2018-07-13T22:23:19.926Z,19.76
2018-07-13T22:25:48.508Z,19.73
2018-07-13T22:28:17.141Z,19.98
2018-07-13T22:30:45.700Z,20.22
2018-07-13T22:33:14.428Z,19.99
2018-07-13T22:35:42.972Z,19.73
2018-07-13T22:38:11.577Z,19.50
2018-07-13T22:40:40.224Z,19.35
2018-07-13T22:43:09.325Z,19.32
2018-07-13T22:45:37.948Z,19.77
2018-07-13T22:48:06.666Z,19.74
2018-07-13T22:50:35.288Z,19.71
2018-07-13T22:53:03.966Z,19.77
2018-07-13T22:55:32.500Z,19.87
2018-07-13T22:58:01.461Z,19.55
2018-07-13T23:00:30.116Z,19.55
2018-07-13T23:02:58.669Z,19.63
2018-07-13T23:05:27.308Z,19.58
2018-07-13T23:07:55.878Z,19.59
2018-07-13T23:10:24.848Z,19.41
2018-07-13T23:12:53.504Z,19.75
2018-07-13T23:15:22.172Z,19.27
2018-07-13T23:17:51.729Z,19.32
2018-07-13T23:20:20.370Z,19.29
2018-07-13T23:22:49.120Z,18.79
2018-07-13T23:25:17.696Z,18.85
2018-07-13T23:27:46.268Z,19.13
2018-07-13T23:30:14.848Z,18.93
2018-07-13T23:32:43.524Z,19.23
2018-07-13T23:35:12.148Z,18.32
2018-07-13T23:37:41.134Z,18.86
2018-07-13T23:40:09.776Z,18.55
2018-07-13T23:42:38.408Z,18.45
2018-07-13T23:45:06.972Z,19.02
2018-07-13T23:47:35.572Z,18.70
2018-07-13T23:50:04.214Z,18.74
2018-07-13T23:52:32.913Z,18.64
2018-07-13T23:55:01.560Z,18.31
2018-07-13T23:57:30.119Z,18.35
2018-07-13T23:59:58.672Z,17.99
